This is the latest recevied weather packets stored in our database for station/object VK4NB-13. If no packets are shown the sender has not sent any weather packets the latest 10 day(s).
| Time | Temp. | Humidity | Pressure | Rain* | Wind** | Luminosity | Snow |
|---|---|---|---|---|---|---|---|
| 1777701303 | 25.56° C | 67% | 1015.6 hPa | 0 mm | - | - | - |
| 1777699203 | 26.11° C | 64% | 1015.6 hPa | 0 mm | - | - | - |
| 1777698603 | 26.11° C | 64% | 1015.9 hPa | 0 mm | - | - | - |
| 1777693824 | 26.11° C | 66% | 1016.3 hPa | 0 mm | - | - | - |
| 1777693503 | 26.11° C | 63% | 1016.2 hPa | 0 mm | - | - | - |
| 1777693203 | 26.67° C | 66% | 1016.3 hPa | 0 mm | - | - | - |
| 1777691725 | 26.67° C | 66% | 1016.8 hPa | 0 mm | - | - | - |
| 1777690803 | 26.67° C | 69% | 1016.8 hPa | 0 mm | - | - | - |
| 1777690503 | 26.11° C | 67% | 1016.9 hPa | 0 mm | - | - | - |
| 1777688403 | 26.67° C | 72% | 1017.4 hPa | 0 mm | - | - | - |
| 1777688103 | 26.67° C | 73% | 1017.6 hPa | 0 mm | - | - | - |
| 1777684501 | 26.11° C | 73% | 1018.6 hPa | 0 mm | - | - | - |
| 1777679701 | 25.56° C | 79% | 1019.4 hPa | 0 mm | - | - | - |
| 1777679401 | 24.44° C | 80% | 1019.4 hPa | 0 mm | - | - | - |
| 1777678202 | 24.44° C | 81% | 1019.4 hPa | 0 mm | - | - | - |
| 1777673423 | 22.22° C | 87% | 1019.2 hPa | 0 mm | - | - | - |
| 1777672202 | 22.22° C | 88% | 1019 hPa | 0 mm | - | - | - |
| 1777671602 | 22.22° C | 88% | 1018.8 hPa | 0 mm | - | - | - |
| 1777671023 | 22.22° C | 89% | 1018.6 hPa | 0 mm | - | - | - |
| 1777669802 | 21.67° C | 92% | 1018.8 hPa | 0 mm | - | - | - |
| 1777666502 | 19.44° C | 97% | 1018 hPa | 0 mm | - | - | - |
| 1777666202 | 19.44° C | 97% | 1018.1 hPa | 0 mm | - | - | - |
| 1777665302 | 20° C | 96% | 1017.9 hPa | 0 mm | - | - | - |
| 1777664402 | 20° C | 97% | 1017.8 hPa | 0 mm | - | - | - |
| 1777662002 | 20.56° C | 95% | 1017.7 hPa | 0 mm | - | - | - |
* Rain latest hour (hover to see other rain measurements)
** Current wind speed in m/s (hover to see current wind gust speed)